ブリスベン の空港の天気 - METARとTAF

ブリスベン空港 ( YBBN / BNE ) - オーストラリア クイーンズランド州ブリスベン
飛行場実況気象(Metar)
観測時間02/02 00:30 AEST (02/01 14:30 UTC)
風向・風速南東 4m/s
視程10km以上
天気現象
全天の8割程度の雲 雲底高度 460m
全天の4割程度の雲 雲底高度 640m
全天の8割程度の雲 雲底高度 4270m
気温26℃
湿度84%
気圧1001hPa
METARYBBN 011430Z 13007KT 9999 BKN015 SCT021 BKN140 26/23 Q1001 RF00/0/005/8
過去の天気等 Google飛行場航空写真 Wunderground天気予報

過去48時間のMETAR

飛行場予報(TAF)
発表時間: 2/02 00:16 AEST (2/01 14:16 UTC)
予報対象時間: 2日0時 AEST ~ 3日4時 AEST
風向・風速南東 3m/s
視程10km以上
全天の8割程度の雲 雲底高度 460m
2日2時 AEST から
風向・風速南 3m/s
視程10km以上
全天の8割程度の雲 雲底高度 460m
2日7時 AEST から
風向・風速南 3m/s
視程10km以上
全天の4割程度の雲 雲底高度 610m
2日9時 AEST から
風向・風速東南東 5m/s
視程10km以上
少しの雲 雲底高度 760m
2日13時 AEST から
風向・風速東 5m/s
視程10km以上
少しの雲 雲底高度 910m
3日0時 AEST から
風向・風速南西 3m/s
視程10km以上
少しの雲 雲底高度 300m
TAF AMD YBBN 011416Z 0114/0218 13006KT 9999 BKN015
FM011600 19006KT 9999 BKN015
FM012100 18006KT 9999 SCT020
FM012300 12010KT 9999 FEW025
FM020300 08010KT 9999 FEW030
FM021400 23006KT 9999 FEW010